Detalii statie INDEPENDENTA [00001985]

Toti senzorii

Date Temperatura solului [C]Precipitatii [mm]Voltaj baterie [mV]Leaf Wetness [Min]HC Air temperature [C]HC Relative humidity [%]Punctul de roua [C]
medieminmaxsumaultimatimpmedieminmaxmediemediemin
2018-10-13 15:00:00 0 7264 21.48 21.14 21.79 0 0 0
2018-10-13 16:00:00 0 7264 21.13 20.77 21.38 0 0 0
2018-10-13 17:00:00 0 7040 19.89 18.9 20.58 0 0 0
2018-10-13 18:00:00 0 6922 17.27 15.45 18.74 0 0 0
2018-10-13 19:00:00 0 6904 14.36 13.23 15.35 0 0 0
2018-10-13 20:00:00 0 6884 12.78 12.02 13.29 0 0 0
2018-10-13 21:00:00 0 6884 11.74 11.29 12.07 0 0 0
2018-10-13 22:00:00 0 6874 11.66 11.28 11.92 0 0 0
2018-10-13 23:00:00 0 6864 10.11 9.46 10.69 0 0 0
2018-10-14 00:00:00 0 6854 8.97 8.62 9.47 0 0 0
2018-10-14 01:00:00 0 6844 9.05 8.55 9.37 0 0 0
2018-10-14 02:00:00 0 6854 8.7 8.43 9.08 0 0 0
2018-10-14 03:00:00 0 6854 7.91 7.69 8.3 0 0 0
2018-10-14 04:00:00 0 6854 7.82 7.67 7.93 0 0 0
2018-10-14 05:00:00 0 6834 7.42 7.17 7.71 0 0 0
2018-10-14 06:00:00 0 6834 6.79 6.45 7 0 0 0
2018-10-14 07:00:00 0 6874 6.46 6.26 6.8 0 0 0
2018-10-14 08:00:00 0 6972 8.24 6.93 9.77 0 0 0
2018-10-14 09:00:00 0 7050 11.45 10.1 12.9 0 0 0
2018-10-14 10:00:00 0 7216 14.64 13.12 16.25 0 0 0
2018-10-14 11:00:00 0 7108 17.7 16.35 18.73 0 0 0
2018-10-14 12:00:00 0 7246 19.45 18.27 20.16 0 0 0
2018-10-14 13:00:00 0 7254 20.76 19.97 21.58 0 0 0
2018-10-14 14:00:00 0 7264 22.14 21.49 22.87 0 0 0
2018-10-14 15:00:00 0 7264 23 22.58 23.48 0 0 0
2018-10-14 16:00:00 0 7264 22.82 22.48 23.16 0 0 0
2018-10-14 17:00:00 0 7020 21.65 20.51 22.45 0 0 0
2018-10-14 18:00:00 0 6932 19.04 17.6 20.29 0 0 0
2018-10-14 19:00:00 0 6904 16.21 15.29 17.51 0 0 0
2018-10-14 20:00:00 0 6884 14 12.84 14.91 0 0 0
2018-10-14 21:00:00 0 6874 12.12 11.56 12.76 0 0 0
2018-10-14 22:00:00 0 6874 10.4 9.48 11.49 0 0 0
2018-10-14 23:00:00 0 6854 9.06 8.65 9.41 0 0 0
2018-10-15 00:00:00 0 6864 7.94 6.57 8.63 0 0 0
2018-10-15 01:00:00 0 6834 5.99 5.14 6.75 0 0 0
2018-10-15 02:00:00 0 6844 6.61 5 7.81 0.38 0
2018-10-15 03:00:00 0 6834 8.19 7.79 8.53 0 0 0
2018-10-15 04:00:00 0 6844 7.86 7.65 8.19 0 0 0
2018-10-15 05:00:00 0 6834 7.51 6.96 7.75 0 0 0
2018-10-15 06:00:00 0 6844 6.82 6.53 6.96 0 0 0
2018-10-15 07:00:00 0 6854 6 5.63 6.47 0 0 0
2018-10-15 08:00:00 0 6952 8.49 6.65 10.14 0 0 0
2018-10-15 09:00:00 0 7040 12.51 10.62 14.11 0 0 0
2018-10-15 10:00:00 0 7060 15.82 14.26 17.42 0 0 0
2018-10-15 11:00:00 0 7098 18.9 17.77 20.12 0 0 0
2018-10-15 12:00:00 0 7254 21.23 20.28 22.21 0 0 0
2018-10-15 13:00:00 0 7254 22.99 22.45 23.7 0 0 0
2018-10-15 14:00:00 0 7264 23.96 23.41 24.58 0 0 0